Terminal Aerodrome Forecast
Issued by NWS

Home | Current Version | Previous Version | Graphics & Text | Print | Product List | Glossary On
Versions: 1 2 3 4 5 6 7 8 9 10 11 12 13 14 15 16 17 18 19 20 21 22 23 24 25 26 27 28 29 30 31 32 33 34
000
FTUS43 KLOT 262341
TAFORD
TAF
KORD 262341Z 2700/2806 04011KT 6SM -RA SCT040 OVC070
     FM270100 04011KT P6SM VCSH SCT040 OVC080
     FM270400 02009KT P6SM SCT040 BKN120
     FM271300 02012G18KT P6SM SCT040 BKN250
     FM280000 02010KT P6SM BKN250=

USA.gov is the U.S. government's official web portal to all federal, state and local government web resources and services.